sensor_id;sensor_type;location;lat;lon;timestamp;P1;durP1;ratioP1;P2;durP2;ratioP2
6638;SDS011;3355;52.882;8.430;2022-08-01T00:01:15;5.23;;;3.53;;
6638;SDS011;3355;52.882;8.430;2022-08-01T00:03:42;4.67;;;2.80;;
6638;SDS011;3355;52.882;8.430;2022-08-01T00:06:08;5.60;;;3.13;;
6638;SDS011;3355;52.882;8.430;2022-08-01T00:08:35;5.10;;;3.10;;
6638;SDS011;3355;52.882;8.430;2022-08-01T00:11:01;5.90;;;3.87;;
6638;SDS011;3355;52.882;8.430;2022-08-01T00:13:29;4.77;;;2.87;;
6638;SDS011;3355;52.882;8.430;2022-08-01T00:15:56;5.07;;;3.27;;
6638;SDS011;3355;52.882;8.430;2022-08-01T00:18:22;5.03;;;2.80;;
6638;SDS011;3355;52.882;8.430;2022-08-01T00:20:49;5.50;;;3.33;;
6638;SDS011;3355;52.882;8.430;2022-08-01T00:23:15;5.30;;;3.20;;
6638;SDS011;3355;52.882;8.430;2022-08-01T00:25:42;4.43;;;3.27;;
6638;SDS011;3355;52.882;8.430;2022-08-01T00:28:08;4.80;;;3.67;;
6638;SDS011;3355;52.882;8.430;2022-08-01T00:30:36;4.33;;;2.97;;
6638;SDS011;3355;52.882;8.430;2022-08-01T00:33:02;3.97;;;2.83;;
6638;SDS011;3355;52.882;8.430;2022-08-01T00:35:29;4.80;;;2.67;;
6638;SDS011;3355;52.882;8.430;2022-08-01T00:37:56;5.43;;;2.90;;
6638;SDS011;3355;52.882;8.430;2022-08-01T00:40:22;4.80;;;2.40;;
6638;SDS011;3355;52.882;8.430;2022-08-01T00:42:49;4.40;;;2.70;;
6638;SDS011;3355;52.882;8.430;2022-08-01T00:45:15;5.20;;;2.93;;
6638;SDS011;3355;52.882;8.430;2022-08-01T00:47:43;4.30;;;3.00;;
6638;SDS011;3355;52.882;8.430;2022-08-01T00:50:10;4.77;;;3.30;;
6638;SDS011;3355;52.882;8.430;2022-08-01T00:52:37;4.33;;;3.13;;
6638;SDS011;3355;52.882;8.430;2022-08-01T00:55:05;4.67;;;3.20;;
6638;SDS011;3355;52.882;8.430;2022-08-01T00:57:33;5.40;;;4.00;;
6638;SDS011;3355;52.882;8.430;2022-08-01T00:59:59;5.57;;;4.03;;
6638;SDS011;3355;52.882;8.430;2022-08-01T01:02:26;5.53;;;4.03;;
6638;SDS011;3355;52.882;8.430;2022-08-01T01:04:54;6.90;;;4.03;;
6638;SDS011;3355;52.882;8.430;2022-08-01T01:07:22;6.07;;;4.33;;
6638;SDS011;3355;52.882;8.430;2022-08-01T01:09:56;5.70;;;4.10;;
6638;SDS011;3355;52.882;8.430;2022-08-01T01:12:27;6.20;;;3.60;;
6638;SDS011;3355;52.882;8.430;2022-08-01T01:14:56;6.90;;;4.90;;
6638;SDS011;3355;52.882;8.430;2022-08-01T01:17:29;6.67;;;3.87;;
6638;SDS011;3355;52.882;8.430;2022-08-01T01:20:01;6.43;;;4.93;;
6638;SDS011;3355;52.882;8.430;2022-08-01T01:22:39;4.80;;;3.50;;
6638;SDS011;3355;52.882;8.430;2022-08-01T01:28:35;5.80;;;4.20;;
6638;SDS011;3355;52.882;8.430;2022-08-01T01:31:08;6.47;;;3.87;;
6638;SDS011;3355;52.882;8.430;2022-08-01T01:33:37;5.33;;;3.43;;
6638;SDS011;3355;52.882;8.430;2022-08-01T01:36:07;6.60;;;4.07;;
6638;SDS011;3355;52.882;8.430;2022-08-01T01:38:36;4.63;;;3.23;;
6638;SDS011;3355;52.882;8.430;2022-08-01T01:41:07;5.10;;;3.70;;
6638;SDS011;3355;52.882;8.430;2022-08-01T01:43:35;7.53;;;3.63;;
6638;SDS011;3355;52.882;8.430;2022-08-01T01:46:03;5.17;;;2.77;;
6638;SDS011;3355;52.882;8.430;2022-08-01T01:48:32;4.87;;;3.30;;
6638;SDS011;3355;52.882;8.430;2022-08-01T01:51:00;6.20;;;3.00;;
6638;SDS011;3355;52.882;8.430;2022-08-01T01:53:26;8.60;;;3.27;;
6638;SDS011;3355;52.882;8.430;2022-08-01T01:55:55;5.17;;;3.40;;
6638;SDS011;3355;52.882;8.430;2022-08-01T01:58:24;4.47;;;3.13;;
6638;SDS011;3355;52.882;8.430;2022-08-01T02:00:51;4.70;;;2.93;;
6638;SDS011;3355;52.882;8.430;2022-08-01T02:03:18;5.27;;;2.77;;
6638;SDS011;3355;52.882;8.430;2022-08-01T02:05:47;4.60;;;2.77;;
6638;SDS011;3355;52.882;8.430;2022-08-01T02:08:15;5.00;;;2.60;;
6638;SDS011;3355;52.882;8.430;2022-08-01T02:10:42;4.47;;;2.50;;
6638;SDS011;3355;52.882;8.430;2022-08-01T02:13:31;4.70;;;3.17;;
6638;SDS011;3355;52.882;8.430;2022-08-01T02:15:59;4.40;;;2.47;;
6638;SDS011;3355;52.882;8.430;2022-08-01T02:18:27;4.40;;;2.70;;
6638;SDS011;3355;52.882;8.430;2022-08-01T02:20:55;4.30;;;3.00;;
6638;SDS011;3355;52.882;8.430;2022-08-01T02:23:24;4.33;;;2.87;;
6638;SDS011;3355;52.882;8.430;2022-08-01T02:25:53;4.00;;;2.53;;
6638;SDS011;3355;52.882;8.430;2022-08-01T02:28:22;4.60;;;2.80;;
6638;SDS011;3355;52.882;8.430;2022-08-01T02:30:53;5.33;;;3.63;;
6638;SDS011;3355;52.882;8.430;2022-08-01T02:33:23;5.20;;;3.60;;
6638;SDS011;3355;52.882;8.430;2022-08-01T02:35:51;4.10;;;2.73;;
6638;SDS011;3355;52.882;8.430;2022-08-01T02:38:25;5.53;;;3.90;;
6638;SDS011;3355;52.882;8.430;2022-08-01T02:40:52;5.10;;;3.30;;
6638;SDS011;3355;52.882;8.430;2022-08-01T02:43:23;6.27;;;3.53;;
6638;SDS011;3355;52.882;8.430;2022-08-01T02:45:51;5.80;;;4.50;;
6638;SDS011;3355;52.882;8.430;2022-08-01T02:48:19;5.30;;;4.33;;
6638;SDS011;3355;52.882;8.430;2022-08-01T02:50:48;5.33;;;4.07;;
6638;SDS011;3355;52.882;8.430;2022-08-01T02:53:16;6.97;;;4.27;;
6638;SDS011;3355;52.882;8.430;2022-08-01T02:55:46;5.40;;;4.07;;
6638;SDS011;3355;52.882;8.430;2022-08-01T02:58:14;5.47;;;3.60;;
6638;SDS011;3355;52.882;8.430;2022-08-01T03:00:42;5.40;;;4.60;;
6638;SDS011;3355;52.882;8.430;2022-08-01T03:03:09;4.93;;;4.20;;
6638;SDS011;3355;52.882;8.430;2022-08-01T03:05:36;4.53;;;3.30;;
6638;SDS011;3355;52.882;8.430;2022-08-01T03:08:05;4.33;;;2.97;;
6638;SDS011;3355;52.882;8.430;2022-08-01T03:10:33;4.40;;;2.93;;
6638;SDS011;3355;52.882;8.430;2022-08-01T03:13:03;5.07;;;3.37;;
6638;SDS011;3355;52.882;8.430;2022-08-01T03:15:31;4.43;;;3.13;;
6638;SDS011;3355;52.882;8.430;2022-08-01T03:18:00;4.53;;;3.33;;
6638;SDS011;3355;52.882;8.430;2022-08-01T03:20:27;4.23;;;2.87;;
6638;SDS011;3355;52.882;8.430;2022-08-01T03:22:56;4.63;;;3.10;;
6638;SDS011;3355;52.882;8.430;2022-08-01T03:25:24;4.63;;;2.90;;
6638;SDS011;3355;52.882;8.430;2022-08-01T03:27:54;4.07;;;2.53;;
6638;SDS011;3355;52.882;8.430;2022-08-01T03:30:23;4.07;;;2.63;;
6638;SDS011;3355;52.882;8.430;2022-08-01T03:32:51;5.13;;;2.27;;
6638;SDS011;3355;52.882;8.430;2022-08-01T03:35:18;4.97;;;2.70;;
6638;SDS011;3355;52.882;8.430;2022-08-01T03:38:03;3.50;;;2.20;;
6638;SDS011;3355;52.882;8.430;2022-08-01T03:40:35;3.90;;;1.90;;
6638;SDS011;3355;52.882;8.430;2022-08-01T03:43:04;4.53;;;2.40;;
6638;SDS011;3355;52.882;8.430;2022-08-01T03:45:35;3.30;;;2.10;;
6638;SDS011;3355;52.882;8.430;2022-08-01T03:48:05;3.40;;;1.87;;
6638;SDS011;3355;52.882;8.430;2022-08-01T03:50:35;3.17;;;1.90;;
6638;SDS011;3355;52.882;8.430;2022-08-01T03:53:03;3.30;;;1.70;;
6638;SDS011;3355;52.882;8.430;2022-08-01T03:55:30;4.13;;;2.13;;
6638;SDS011;3355;52.882;8.430;2022-08-01T03:57:57;4.73;;;2.00;;
6638;SDS011;3355;52.882;8.430;2022-08-01T04:00:23;5.87;;;2.47;;
6638;SDS011;3355;52.882;8.430;2022-08-01T04:02:52;4.77;;;2.50;;
6638;SDS011;3355;52.882;8.430;2022-08-01T04:05:18;4.23;;;2.50;;
6638;SDS011;3355;52.882;8.430;2022-08-01T04:07:45;4.57;;;2.20;;
6638;SDS011;3355;52.882;8.430;2022-08-01T04:10:12;3.70;;;2.23;;
6638;SDS011;3355;52.882;8.430;2022-08-01T04:12:39;4.43;;;2.53;;
6638;SDS011;3355;52.882;8.430;2022-08-01T04:15:06;3.60;;;2.37;;
6638;SDS011;3355;52.882;8.430;2022-08-01T04:17:33;4.30;;;2.50;;
6638;SDS011;3355;52.882;8.430;2022-08-01T04:20:01;5.03;;;2.93;;
6638;SDS011;3355;52.882;8.430;2022-08-01T04:22:27;4.43;;;2.43;;
6638;SDS011;3355;52.882;8.430;2022-08-01T04:24:55;8.00;;;3.10;;
6638;SDS011;3355;52.882;8.430;2022-08-01T04:27:24;4.50;;;2.63;;
6638;SDS011;3355;52.882;8.430;2022-08-01T04:29:53;4.43;;;2.80;;
6638;SDS011;3355;52.882;8.430;2022-08-01T04:32:23;5.13;;;3.20;;
6638;SDS011;3355;52.882;8.430;2022-08-01T04:34:51;4.30;;;2.60;;
6638;SDS011;3355;52.882;8.430;2022-08-01T04:37:22;4.70;;;2.80;;
6638;SDS011;3355;52.882;8.430;2022-08-01T04:39:50;4.50;;;2.43;;
6638;SDS011;3355;52.882;8.430;2022-08-01T04:42:18;6.70;;;2.80;;
6638;SDS011;3355;52.882;8.430;2022-08-01T04:44:45;5.83;;;3.30;;
6638;SDS011;3355;52.882;8.430;2022-08-01T04:47:11;4.40;;;3.07;;
6638;SDS011;3355;52.882;8.430;2022-08-01T04:49:39;4.90;;;2.83;;
6638;SDS011;3355;52.882;8.430;2022-08-01T04:52:06;3.90;;;3.07;;
6638;SDS011;3355;52.882;8.430;2022-08-01T04:54:34;4.60;;;3.00;;
6638;SDS011;3355;52.882;8.430;2022-08-01T04:57:03;6.30;;;2.60;;
6638;SDS011;3355;52.882;8.430;2022-08-01T04:59:30;4.00;;;2.60;;
6638;SDS011;3355;52.882;8.430;2022-08-01T05:02:06;6.30;;;3.30;;
6638;SDS011;3355;52.882;8.430;2022-08-01T05:04:33;3.60;;;2.20;;
6638;SDS011;3355;52.882;8.430;2022-08-01T05:07:00;3.90;;;2.30;;
6638;SDS011;3355;52.882;8.430;2022-08-01T05:09:27;4.03;;;2.47;;
6638;SDS011;3355;52.882;8.430;2022-08-01T05:11:54;3.97;;;2.37;;
6638;SDS011;3355;52.882;8.430;2022-08-01T05:14:23;3.73;;;2.50;;
6638;SDS011;3355;52.882;8.430;2022-08-01T05:16:50;3.93;;;2.70;;
6638;SDS011;3355;52.882;8.430;2022-08-01T05:19:16;3.83;;;2.17;;
6638;SDS011;3355;52.882;8.430;2022-08-01T05:21:43;4.57;;;2.10;;
6638;SDS011;3355;52.882;8.430;2022-08-01T05:24:10;3.20;;;1.77;;
6638;SDS011;3355;52.882;8.430;2022-08-01T05:26:37;3.40;;;1.90;;
6638;SDS011;3355;52.882;8.430;2022-08-01T05:29:05;4.07;;;2.07;;
6638;SDS011;3355;52.882;8.430;2022-08-01T05:31:32;3.40;;;1.70;;
6638;SDS011;3355;52.882;8.430;2022-08-01T05:33:59;3.97;;;1.90;;
6638;SDS011;3355;52.882;8.430;2022-08-01T05:36:26;6.43;;;1.80;;
6638;SDS011;3355;52.882;8.430;2022-08-01T05:38:53;4.40;;;1.50;;
6638;SDS011;3355;52.882;8.430;2022-08-01T05:41:19;6.50;;;1.80;;
6638;SDS011;3355;52.882;8.430;2022-08-01T05:47:09;3.23;;;1.30;;
6638;SDS011;3355;52.882;8.430;2022-08-01T05:49:35;4.07;;;1.63;;
6638;SDS011;3355;52.882;8.430;2022-08-01T05:52:02;3.90;;;1.60;;
6638;SDS011;3355;52.882;8.430;2022-08-01T05:54:30;3.77;;;1.97;;
6638;SDS011;3355;52.882;8.430;2022-08-01T05:56:56;4.27;;;1.70;;
6638;SDS011;3355;52.882;8.430;2022-08-01T05:59:26;4.00;;;2.00;;
6638;SDS011;3355;52.882;8.430;2022-08-01T06:01:53;3.37;;;1.83;;
6638;SDS011;3355;52.882;8.430;2022-08-01T06:04:21;3.30;;;1.57;;
6638;SDS011;3355;52.882;8.430;2022-08-01T06:06:47;4.30;;;1.93;;
6638;SDS011;3355;52.882;8.430;2022-08-01T06:09:14;4.10;;;2.00;;
6638;SDS011;3355;52.882;8.430;2022-08-01T06:11:40;4.30;;;1.87;;
6638;SDS011;3355;52.882;8.430;2022-08-01T06:14:07;4.10;;;2.20;;
6638;SDS011;3355;52.882;8.430;2022-08-01T06:16:34;6.30;;;2.20;;
6638;SDS011;3355;52.882;8.430;2022-08-01T06:19:00;4.37;;;2.20;;
6638;SDS011;3355;52.882;8.430;2022-08-01T06:21:28;4.77;;;2.50;;
6638;SDS011;3355;52.882;8.430;2022-08-01T06:23:55;4.53;;;2.90;;
6638;SDS011;3355;52.882;8.430;2022-08-01T06:26:21;8.20;;;2.30;;
6638;SDS011;3355;52.882;8.430;2022-08-01T06:28:48;4.80;;;2.10;;
6638;SDS011;3355;52.882;8.430;2022-08-01T06:31:15;6.70;;;2.30;;
6638;SDS011;3355;52.882;8.430;2022-08-01T06:33:41;5.17;;;2.97;;
6638;SDS011;3355;52.882;8.430;2022-08-01T06:36:08;4.10;;;2.80;;
6638;SDS011;3355;52.882;8.430;2022-08-01T06:38:36;4.30;;;2.50;;
6638;SDS011;3355;52.882;8.430;2022-08-01T06:41:03;5.20;;;2.50;;
6638;SDS011;3355;52.882;8.430;2022-08-01T06:43:30;5.33;;;2.73;;
6638;SDS011;3355;52.882;8.430;2022-08-01T06:45:56;6.07;;;2.57;;
6638;SDS011;3355;52.882;8.430;2022-08-01T06:48:23;5.90;;;2.20;;
6638;SDS011;3355;52.882;8.430;2022-08-01T06:50:49;6.70;;;2.67;;
6638;SDS011;3355;52.882;8.430;2022-08-01T06:53:32;8.53;;;2.33;;
6638;SDS011;3355;52.882;8.430;2022-08-01T06:56:00;6.03;;;2.53;;
6638;SDS011;3355;52.882;8.430;2022-08-01T06:58:27;4.00;;;2.13;;
6638;SDS011;3355;52.882;8.430;2022-08-01T07:00:53;4.80;;;2.30;;
6638;SDS011;3355;52.882;8.430;2022-08-01T07:03:20;6.10;;;2.63;;
6638;SDS011;3355;52.882;8.430;2022-08-01T07:05:46;6.73;;;3.00;;
6638;SDS011;3355;52.882;8.430;2022-08-01T07:08:13;12.23;;;3.90;;
6638;SDS011;3355;52.882;8.430;2022-08-01T07:10:39;6.37;;;3.00;;
6638;SDS011;3355;52.882;8.430;2022-08-01T07:13:07;11.33;;;2.87;;
6638;SDS011;3355;52.882;8.430;2022-08-01T07:15:34;8.43;;;2.80;;
6638;SDS011;3355;52.882;8.430;2022-08-01T07:18:00;12.20;;;2.90;;
6638;SDS011;3355;52.882;8.430;2022-08-01T07:20:30;5.33;;;3.03;;
6638;SDS011;3355;52.882;8.430;2022-08-01T07:22:57;5.60;;;2.73;;
6638;SDS011;3355;52.882;8.430;2022-08-01T07:25:23;5.93;;;3.17;;
6638;SDS011;3355;52.882;8.430;2022-08-01T07:27:50;4.67;;;2.87;;
6638;SDS011;3355;52.882;8.430;2022-08-01T07:30:18;9.90;;;2.87;;
6638;SDS011;3355;52.882;8.430;2022-08-01T07:32:44;7.23;;;2.90;;
6638;SDS011;3355;52.882;8.430;2022-08-01T07:35:11;6.17;;;3.00;;
6638;SDS011;3355;52.882;8.430;2022-08-01T07:37:38;7.00;;;3.20;;
6638;SDS011;3355;52.882;8.430;2022-08-01T07:40:05;4.27;;;2.30;;
6638;SDS011;3355;52.882;8.430;2022-08-01T07:42:32;6.57;;;3.20;;
6638;SDS011;3355;52.882;8.430;2022-08-01T07:44:59;5.30;;;2.80;;
6638;SDS011;3355;52.882;8.430;2022-08-01T07:47:27;10.50;;;4.00;;
6638;SDS011;3355;52.882;8.430;2022-08-01T07:49:58;6.03;;;2.90;;
6638;SDS011;3355;52.882;8.430;2022-08-01T07:52:25;5.90;;;2.80;;
6638;SDS011;3355;52.882;8.430;2022-08-01T07:54:52;10.30;;;3.73;;
6638;SDS011;3355;52.882;8.430;2022-08-01T07:57:19;4.80;;;3.20;;
6638;SDS011;3355;52.882;8.430;2022-08-01T07:59:46;6.97;;;3.10;;
6638;SDS011;3355;52.882;8.430;2022-08-01T08:02:13;8.80;;;3.40;;
6638;SDS011;3355;52.882;8.430;2022-08-01T08:04:41;9.63;;;3.40;;
6638;SDS011;3355;52.882;8.430;2022-08-01T08:07:07;7.90;;;2.90;;
6638;SDS011;3355;52.882;8.430;2022-08-01T08:09:34;5.90;;;3.07;;
6638;SDS011;3355;52.882;8.430;2022-08-01T08:12:01;8.13;;;3.30;;
6638;SDS011;3355;52.882;8.430;2022-08-01T08:14:27;7.03;;;3.20;;
6638;SDS011;3355;52.882;8.430;2022-08-01T08:16:54;7.30;;;2.70;;
6638;SDS011;3355;52.882;8.430;2022-08-01T08:19:21;6.77;;;3.87;;
6638;SDS011;3355;52.882;8.430;2022-08-01T08:21:48;8.10;;;3.43;;
6638;SDS011;3355;52.882;8.430;2022-08-01T08:24:15;10.10;;;3.30;;
6638;SDS011;3355;52.882;8.430;2022-08-01T08:26:49;8.33;;;4.27;;
6638;SDS011;3355;52.882;8.430;2022-08-01T08:29:18;7.97;;;3.03;;
6638;SDS011;3355;52.882;8.430;2022-08-01T08:31:45;6.07;;;3.23;;
6638;SDS011;3355;52.882;8.430;2022-08-01T08:34:12;10.40;;;3.50;;
6638;SDS011;3355;52.882;8.430;2022-08-01T08:36:40;6.77;;;2.87;;
6638;SDS011;3355;52.882;8.430;2022-08-01T08:39:09;7.47;;;2.67;;
6638;SDS011;3355;52.882;8.430;2022-08-01T08:41:37;4.80;;;2.60;;
6638;SDS011;3355;52.882;8.430;2022-08-01T08:44:06;5.77;;;2.97;;
6638;SDS011;3355;52.882;8.430;2022-08-01T08:46:35;7.20;;;3.30;;
6638;SDS011;3355;52.882;8.430;2022-08-01T08:49:08;7.77;;;3.40;;
6638;SDS011;3355;52.882;8.430;2022-08-01T08:51:37;7.97;;;3.40;;
6638;SDS011;3355;52.882;8.430;2022-08-01T08:54:05;7.10;;;3.10;;
6638;SDS011;3355;52.882;8.430;2022-08-01T08:56:34;4.50;;;2.73;;
6638;SDS011;3355;52.882;8.430;2022-08-01T08:59:01;6.80;;;3.20;;
6638;SDS011;3355;52.882;8.430;2022-08-01T09:01:29;5.83;;;2.77;;
6638;SDS011;3355;52.882;8.430;2022-08-01T09:03:57;8.87;;;4.40;;
6638;SDS011;3355;52.882;8.430;2022-08-01T09:06:24;8.47;;;3.37;;
6638;SDS011;3355;52.882;8.430;2022-08-01T09:08:50;10.73;;;3.73;;
6638;SDS011;3355;52.882;8.430;2022-08-01T09:11:17;5.33;;;3.13;;
6638;SDS011;3355;52.882;8.430;2022-08-01T09:13:46;9.50;;;3.00;;
6638;SDS011;3355;52.882;8.430;2022-08-01T09:16:28;5.30;;;2.97;;
6638;SDS011;3355;52.882;8.430;2022-08-01T09:19:03;9.23;;;2.90;;
6638;SDS011;3355;52.882;8.430;2022-08-01T09:21:33;7.93;;;2.50;;
6638;SDS011;3355;52.882;8.430;2022-08-01T09:23:59;10.37;;;3.00;;
6638;SDS011;3355;52.882;8.430;2022-08-01T09:26:28;5.73;;;2.70;;
6638;SDS011;3355;52.882;8.430;2022-08-01T09:28:57;5.97;;;3.00;;
6638;SDS011;3355;52.882;8.430;2022-08-01T09:31:26;4.63;;;2.90;;
6638;SDS011;3355;52.882;8.430;2022-08-01T09:33:54;4.83;;;2.63;;
6638;SDS011;3355;52.882;8.430;2022-08-01T09:36:21;7.03;;;3.33;;
6638;SDS011;3355;52.882;8.430;2022-08-01T09:38:49;5.37;;;2.53;;
6638;SDS011;3355;52.882;8.430;2022-08-01T09:41:17;5.67;;;2.80;;
6638;SDS011;3355;52.882;8.430;2022-08-01T09:43:57;10.63;;;2.90;;
6638;SDS011;3355;52.882;8.430;2022-08-01T09:46:24;7.83;;;2.60;;
6638;SDS011;3355;52.882;8.430;2022-08-01T09:48:54;6.03;;;2.60;;
6638;SDS011;3355;52.882;8.430;2022-08-01T09:51:29;5.90;;;2.60;;
6638;SDS011;3355;52.882;8.430;2022-08-01T09:53:56;10.03;;;3.73;;
6638;SDS011;3355;52.882;8.430;2022-08-01T09:56:24;5.70;;;2.43;;
6638;SDS011;3355;52.882;8.430;2022-08-01T09:58:54;8.37;;;2.47;;
6638;SDS011;3355;52.882;8.430;2022-08-01T10:01:24;5.10;;;2.93;;
6638;SDS011;3355;52.882;8.430;2022-08-01T10:04:04;8.97;;;3.10;;
6638;SDS011;3355;52.882;8.430;2022-08-01T10:06:32;6.67;;;2.60;;
6638;SDS011;3355;52.882;8.430;2022-08-01T10:09:02;6.30;;;2.60;;
6638;SDS011;3355;52.882;8.430;2022-08-01T10:11:30;9.27;;;2.60;;
6638;SDS011;3355;52.882;8.430;2022-08-01T10:14:00;6.47;;;3.00;;
6638;SDS011;3355;52.882;8.430;2022-08-01T10:16:28;5.60;;;2.83;;
6638;SDS011;3355;52.882;8.430;2022-08-01T10:18:57;5.03;;;2.23;;
6638;SDS011;3355;52.882;8.430;2022-08-01T10:21:27;8.30;;;3.03;;
6638;SDS011;3355;52.882;8.430;2022-08-01T10:23:55;7.47;;;3.33;;
6638;SDS011;3355;52.882;8.430;2022-08-01T10:26:25;7.20;;;3.17;;
6638;SDS011;3355;52.882;8.430;2022-08-01T10:28:53;5.33;;;2.60;;
6638;SDS011;3355;52.882;8.430;2022-08-01T10:31:22;5.43;;;2.40;;
6638;SDS011;3355;52.882;8.430;2022-08-01T10:33:50;4.70;;;2.80;;
6638;SDS011;3355;52.882;8.430;2022-08-01T10:36:19;10.77;;;3.00;;
6638;SDS011;3355;52.882;8.430;2022-08-01T10:38:46;6.37;;;2.87;;
6638;SDS011;3355;52.882;8.430;2022-08-01T10:41:13;9.53;;;2.73;;
6638;SDS011;3355;52.882;8.430;2022-08-01T10:43:41;6.83;;;2.50;;
6638;SDS011;3355;52.882;8.430;2022-08-01T10:46:08;5.20;;;2.23;;
6638;SDS011;3355;52.882;8.430;2022-08-01T10:48:40;7.10;;;2.90;;
6638;SDS011;3355;52.882;8.430;2022-08-01T10:51:11;9.60;;;2.97;;
6638;SDS011;3355;52.882;8.430;2022-08-01T10:53:46;9.33;;;3.27;;
6638;SDS011;3355;52.882;8.430;2022-08-01T10:56:14;6.40;;;2.77;;
6638;SDS011;3355;52.882;8.430;2022-08-01T10:58:43;11.03;;;3.77;;
6638;SDS011;3355;52.882;8.430;2022-08-01T11:01:18;6.27;;;2.50;;
6638;SDS011;3355;52.882;8.430;2022-08-01T11:03:58;8.60;;;2.90;;
6638;SDS011;3355;52.882;8.430;2022-08-01T11:06:35;7.30;;;2.60;;
6638;SDS011;3355;52.882;8.430;2022-08-01T11:09:15;9.00;;;2.67;;
6638;SDS011;3355;52.882;8.430;2022-08-01T11:11:57;4.80;;;2.77;;
6638;SDS011;3355;52.882;8.430;2022-08-01T11:14:26;8.93;;;2.90;;
6638;SDS011;3355;52.882;8.430;2022-08-01T11:16:54;9.03;;;2.67;;
6638;SDS011;3355;52.882;8.430;2022-08-01T11:19:24;4.90;;;2.50;;
6638;SDS011;3355;52.882;8.430;2022-08-01T11:22:30;4.47;;;2.50;;
6638;SDS011;3355;52.882;8.430;2022-08-01T11:24:58;5.00;;;2.03;;
6638;SDS011;3355;52.882;8.430;2022-08-01T11:27:27;6.27;;;2.73;;
6638;SDS011;3355;52.882;8.430;2022-08-01T11:32:52;3.60;;;2.43;;
6638;SDS011;3355;52.882;8.430;2022-08-01T11:35:22;6.40;;;2.33;;
6638;SDS011;3355;52.882;8.430;2022-08-01T11:37:52;7.07;;;2.60;;
6638;SDS011;3355;52.882;8.430;2022-08-01T11:40:22;6.63;;;2.20;;
6638;SDS011;3355;52.882;8.430;2022-08-01T11:42:51;8.30;;;2.13;;
6638;SDS011;3355;52.882;8.430;2022-08-01T11:45:46;5.20;;;1.70;;
6638;SDS011;3355;52.882;8.430;2022-08-01T11:48:17;6.80;;;2.60;;
6638;SDS011;3355;52.882;8.430;2022-08-01T11:50:46;5.97;;;2.70;;
6638;SDS011;3355;52.882;8.430;2022-08-01T11:53:14;7.57;;;2.87;;
6638;SDS011;3355;52.882;8.430;2022-08-01T11:55:43;4.17;;;2.40;;
6638;SDS011;3355;52.882;8.430;2022-08-01T11:58:13;7.07;;;2.60;;
6638;SDS011;3355;52.882;8.430;2022-08-01T12:00:41;7.27;;;2.77;;
6638;SDS011;3355;52.882;8.430;2022-08-01T12:03:09;4.40;;;2.30;;
6638;SDS011;3355;52.882;8.430;2022-08-01T12:05:36;4.30;;;2.33;;
6638;SDS011;3355;52.882;8.430;2022-08-01T12:08:04;3.30;;;1.80;;
6638;SDS011;3355;52.882;8.430;2022-08-01T12:10:33;6.03;;;3.37;;
6638;SDS011;3355;52.882;8.430;2022-08-01T12:13:02;7.20;;;2.23;;
6638;SDS011;3355;52.882;8.430;2022-08-01T12:15:32;5.13;;;2.10;;
6638;SDS011;3355;52.882;8.430;2022-08-01T12:18:01;4.10;;;2.20;;
6638;SDS011;3355;52.882;8.430;2022-08-01T12:20:30;4.60;;;1.97;;
6638;SDS011;3355;52.882;8.430;2022-08-01T12:22:58;6.30;;;2.47;;
6638;SDS011;3355;52.882;8.430;2022-08-01T12:25:28;5.03;;;2.00;;
6638;SDS011;3355;52.882;8.430;2022-08-01T12:27:58;7.00;;;2.00;;
6638;SDS011;3355;52.882;8.430;2022-08-01T12:30:27;5.47;;;2.73;;
6638;SDS011;3355;52.882;8.430;2022-08-01T12:32:56;4.53;;;2.00;;
6638;SDS011;3355;52.882;8.430;2022-08-01T12:35:24;5.27;;;2.50;;
6638;SDS011;3355;52.882;8.430;2022-08-01T12:37:54;4.07;;;1.90;;
6638;SDS011;3355;52.882;8.430;2022-08-01T12:40:23;3.73;;;1.77;;
6638;SDS011;3355;52.882;8.430;2022-08-01T12:42:53;5.70;;;2.23;;
6638;SDS011;3355;52.882;8.430;2022-08-01T12:45:23;7.00;;;2.07;;
6638;SDS011;3355;52.882;8.430;2022-08-01T12:47:52;6.60;;;2.40;;
6638;SDS011;3355;52.882;8.430;2022-08-01T12:50:20;5.53;;;2.20;;
6638;SDS011;3355;52.882;8.430;2022-08-01T12:52:49;15.47;;;3.43;;
6638;SDS011;3355;52.882;8.430;2022-08-01T12:55:16;4.63;;;2.23;;
6638;SDS011;3355;52.882;8.430;2022-08-01T12:57:45;4.53;;;2.50;;
6638;SDS011;3355;52.882;8.430;2022-08-01T13:00:18;4.70;;;2.00;;
6638;SDS011;3355;52.882;8.430;2022-08-01T13:02:47;7.07;;;2.97;;
6638;SDS011;3355;52.882;8.430;2022-08-01T13:05:15;7.10;;;2.50;;
6638;SDS011;3355;52.882;8.430;2022-08-01T13:07:44;4.83;;;1.93;;
6638;SDS011;3355;52.882;8.430;2022-08-01T13:10:12;5.20;;;1.90;;
6638;SDS011;3355;52.882;8.430;2022-08-01T13:12:40;4.23;;;2.00;;
6638;SDS011;3355;52.882;8.430;2022-08-01T13:15:23;5.70;;;2.10;;
6638;SDS011;3355;52.882;8.430;2022-08-01T13:17:56;11.03;;;2.50;;
6638;SDS011;3355;52.882;8.430;2022-08-01T13:20:31;4.10;;;2.00;;
6638;SDS011;3355;52.882;8.430;2022-08-01T13:23:09;4.23;;;1.97;;
6638;SDS011;3355;52.882;8.430;2022-08-01T13:25:46;4.50;;;2.50;;
6638;SDS011;3355;52.882;8.430;2022-08-01T13:28:13;4.20;;;2.07;;
6638;SDS011;3355;52.882;8.430;2022-08-01T13:30:50;5.80;;;2.53;;
6638;SDS011;3355;52.882;8.430;2022-08-01T14:27:18;6.60;;;2.73;;
6638;SDS011;3355;52.882;8.430;2022-08-01T14:29:45;6.80;;;2.10;;
6638;SDS011;3355;52.882;8.430;2022-08-01T14:32:12;4.67;;;1.90;;
6638;SDS011;3355;52.882;8.430;2022-08-01T14:34:38;7.33;;;2.53;;
6638;SDS011;3355;52.882;8.430;2022-08-01T14:37:05;6.27;;;3.00;;
6638;SDS011;3355;52.882;8.430;2022-08-01T14:39:31;6.33;;;2.17;;
6638;SDS011;3355;52.882;8.430;2022-08-01T14:41:58;5.60;;;2.13;;
6638;SDS011;3355;52.882;8.430;2022-08-01T14:44:26;7.07;;;2.50;;
6638;SDS011;3355;52.882;8.430;2022-08-01T14:46:52;5.00;;;2.30;;
6638;SDS011;3355;52.882;8.430;2022-08-01T14:49:19;5.30;;;2.63;;
6638;SDS011;3355;52.882;8.430;2022-08-01T14:51:45;6.67;;;2.57;;
6638;SDS011;3355;52.882;8.430;2022-08-01T14:54:12;4.53;;;2.40;;
6638;SDS011;3355;52.882;8.430;2022-08-01T14:56:38;5.07;;;2.23;;
6638;SDS011;3355;52.882;8.430;2022-08-01T14:59:05;8.40;;;2.50;;
6638;SDS011;3355;52.882;8.430;2022-08-01T15:01:33;6.17;;;2.53;;
6638;SDS011;3355;52.882;8.430;2022-08-01T15:03:59;6.80;;;2.23;;
6638;SDS011;3355;52.882;8.430;2022-08-01T15:06:26;12.03;;;2.40;;
6638;SDS011;3355;52.882;8.430;2022-08-01T15:08:53;6.50;;;2.50;;
6638;SDS011;3355;52.882;8.430;2022-08-01T15:11:19;10.90;;;2.40;;
6638;SDS011;3355;52.882;8.430;2022-08-01T15:13:46;6.03;;;2.30;;
6638;SDS011;3355;52.882;8.430;2022-08-01T15:16:34;7.27;;;2.20;;
6638;SDS011;3355;52.882;8.430;2022-08-01T15:19:00;5.67;;;2.40;;
6638;SDS011;3355;52.882;8.430;2022-08-01T15:21:27;5.57;;;2.20;;
6638;SDS011;3355;52.882;8.430;2022-08-01T15:23:54;5.97;;;2.40;;
6638;SDS011;3355;52.882;8.430;2022-08-01T15:26:20;6.13;;;2.33;;
6638;SDS011;3355;52.882;8.430;2022-08-01T15:28:47;5.50;;;2.13;;
6638;SDS011;3355;52.882;8.430;2022-08-01T15:31:13;4.73;;;2.17;;
6638;SDS011;3355;52.882;8.430;2022-08-01T15:33:41;6.40;;;3.20;;
6638;SDS011;3355;52.882;8.430;2022-08-01T15:36:08;4.60;;;2.10;;
6638;SDS011;3355;52.882;8.430;2022-08-01T15:38:35;5.63;;;2.40;;
6638;SDS011;3355;52.882;8.430;2022-08-01T15:41:01;7.50;;;2.50;;
6638;SDS011;3355;52.882;8.430;2022-08-01T15:43:28;7.13;;;2.50;;
6638;SDS011;3355;52.882;8.430;2022-08-01T15:45:54;4.90;;;2.10;;
6638;SDS011;3355;52.882;8.430;2022-08-01T15:48:21;5.00;;;2.20;;
6638;SDS011;3355;52.882;8.430;2022-08-01T15:50:49;5.00;;;2.00;;
6638;SDS011;3355;52.882;8.430;2022-08-01T15:53:16;6.63;;;2.73;;
6638;SDS011;3355;52.882;8.430;2022-08-01T15:55:42;4.20;;;2.30;;
6638;SDS011;3355;52.882;8.430;2022-08-01T15:58:09;5.00;;;2.10;;
6638;SDS011;3355;52.882;8.430;2022-08-01T16:00:35;5.57;;;2.33;;
6638;SDS011;3355;52.882;8.430;2022-08-01T16:03:02;4.20;;;2.47;;
6638;SDS011;3355;52.882;8.430;2022-08-01T16:05:28;6.70;;;2.40;;
6638;SDS011;3355;52.882;8.430;2022-08-01T16:07:56;4.07;;;2.43;;
6638;SDS011;3355;52.882;8.430;2022-08-01T16:10:23;5.17;;;2.90;;
6638;SDS011;3355;52.882;8.430;2022-08-01T16:12:50;5.27;;;2.23;;
6638;SDS011;3355;52.882;8.430;2022-08-01T16:15:16;5.10;;;2.80;;
6638;SDS011;3355;52.882;8.430;2022-08-01T16:17:43;4.50;;;2.13;;
6638;SDS011;3355;52.882;8.430;2022-08-01T16:20:10;7.10;;;2.30;;
6638;SDS011;3355;52.882;8.430;2022-08-01T16:22:36;6.43;;;2.20;;
6638;SDS011;3355;52.882;8.430;2022-08-01T16:25:05;7.90;;;2.50;;
6638;SDS011;3355;52.882;8.430;2022-08-01T16:27:31;5.80;;;2.50;;